Time;durP1;ratioP1;P1;durP2;ratioP2;P2;SDS_P1;SDS_P2;PMS_P1;PMS_P2;Temp;Humidity;BMP_temperature;BMP_pressure;BME280_temperature;BME280_humidity;BME280_pressure;Samples;Min_cycle;Max_cycle;Signal;HPM_P1;HPM_P2
2023/04/08 00:01:51;;;;;;;8.83;3.77;;;;;;;5.39;96.66;101577.84;6076786;28;20095;-72
2023/04/08 00:04:46;;;;;;;8.43;3.50;;;;;;;5.31;97.63;101589.75;6084475;28;20073;-70
2023/04/08 00:07:41;;;;;;;10.67;3.63;;;;;;;5.35;98.36;101597.38;6076579;28;20109;-70
2023/04/08 00:10:36;;;;;;;11.27;4.23;;;;;;;5.12;99.34;101597.88;6076546;28;20049;-70
2023/04/08 00:13:32;;;;;;;8.00;3.80;;;;;;;5.20;100.00;101595.66;6075873;28;20461;-70
2023/04/08 00:16:27;;;;;;;9.93;4.27;;;;;;;5.13;100.00;101591.69;6076439;28;20091;-70
2023/04/08 00:19:22;;;;;;;10.90;4.00;;;;;;;5.18;100.00;101599.31;6076821;28;20037;-69
2023/04/08 00:22:18;;;;;;;11.17;4.20;;;;;;;5.20;100.00;101600.06;6076552;28;20033;-69
2023/04/08 00:25:13;;;;;;;11.10;4.80;;;;;;;5.07;100.00;101596.47;6075493;28;20076;-70
2023/04/08 00:28:08;;;;;;;14.57;4.70;;;;;;;5.05;100.00;101585.19;6076492;28;20047;-70
2023/04/08 00:31:04;;;;;;;10.80;4.60;;;;;;;5.07;100.00;101599.09;6076168;28;20030;-70
2023/04/08 00:33:59;;;;;;;10.20;4.65;;;;;;;5.17;100.00;101587.09;6075567;28;20111;-71
2023/04/08 00:36:55;;;;;;;13.00;5.27;;;;;;;5.03;100.00;101589.69;6076187;28;20555;-70
2023/04/08 00:39:52;;;;;;;9.88;3.70;;;;;;;4.96;100.00;101593.59;6075672;28;20021;-70
2023/04/08 00:42:48;;;;;;;12.82;5.53;;;;;;;4.98;100.00;101589.09;6079582;28;20079;-70
2023/04/08 00:45:43;;;;;;;11.57;4.20;;;;;;;5.22;100.00;101596.41;6075094;28;20695;-70
2023/04/08 00:48:38;;;;;;;7.60;3.53;;;;;;;5.05;100.00;101593.09;6075977;28;20036;-70
2023/04/08 00:51:36;;;;;;;9.53;4.10;;;;;;;5.39;100.00;101613.81;6058212;28;20108;-70
2023/04/08 00:54:32;;;;;;;12.38;4.85;;;;;;;5.33;100.00;101593.97;6074870;28;20279;-68
2023/04/08 00:57:27;;;;;;;11.88;5.15;;;;;;;5.10;100.00;101596.28;6075770;28;20029;-70
2023/04/08 01:00:23;;;;;;;12.73;4.70;;;;;;;5.13;100.00;101606.63;6075495;28;20112;-71
2023/04/08 01:03:28;;;;;;;11.15;5.25;;;;;;;5.20;100.00;101595.66;6056782;28;20113;-71
2023/04/08 01:06:41;;;;;;;10.73;4.82;;;;;;;5.22;100.00;101603.44;6076382;28;20034;-69
2023/04/08 01:09:38;;;;;;;13.98;5.95;;;;;;;5.08;100.00;101595.53;6075699;28;20040;-70
2023/04/08 01:12:43;;;;;;;15.88;5.43;;;;;;;4.96;100.00;101597.09;6093634;28;20060;-70
2023/04/08 01:15:40;;;;;;;12.80;5.22;;;;;;;4.89;100.00;101581.75;6057143;28;20075;-70
2023/04/08 01:18:36;;;;;;;14.95;4.60;;;;;;;4.81;100.00;101584.81;6057764;28;20057;-70
2023/04/08 01:21:31;;;;;;;11.32;4.65;;;;;;;4.92;100.00;101576.34;6090223;28;20494;-69
2023/04/08 01:24:29;;;;;;;13.00;5.03;;;;;;;4.83;100.00;101551.44;6074669;28;20033;-70
2023/04/08 01:27:26;;;;;;;16.08;5.75;;;;;;;4.84;100.00;101576.75;6090123;28;20030;-70
2023/04/08 01:30:23;;;;;;;14.70;5.50;;;;;;;4.90;100.00;101572.94;6075012;28;20466;-70
2023/04/08 01:33:21;;;;;;;14.02;5.50;;;;;;;4.98;100.00;101565.44;6056786;28;20038;-70
2023/04/08 01:36:16;;;;;;;14.20;5.10;;;;;;;4.79;100.00;101570.91;6091040;28;20029;-70
2023/04/08 01:39:13;;;;;;;11.13;5.07;;;;;;;5.00;100.00;101582.00;6074548;28;20033;-69
2023/04/08 01:42:09;;;;;;;12.43;4.65;;;;;;;4.74;100.00;101565.09;6057356;28;20040;-70
2023/04/08 01:45:05;;;;;;;12.13;4.47;;;;;;;4.82;100.00;101582.09;6089323;28;20027;-70
2023/04/08 01:48:01;;;;;;;10.93;4.90;;;;;;;4.85;100.00;101575.84;6074314;28;20056;-70
2023/04/08 01:50:57;;;;;;;10.93;4.40;;;;;;;5.05;100.00;101566.78;6057051;28;20045;-70
2023/04/08 01:53:52;;;;;;;12.23;5.40;;;;;;;4.96;100.00;101572.56;6073972;28;20113;-69
2023/04/08 01:56:49;;;;;;;12.40;4.47;;;;;;;5.00;100.00;101582.00;6074215;28;20037;-70
2023/04/08 01:59:44;;;;;;;11.73;5.60;;;;;;;4.88;100.00;101580.06;6089822;28;20041;-71
2023/04/08 02:02:41;;;;;;;14.15;5.53;;;;;;;4.94;100.00;101579.72;6089374;28;20063;-70
2023/04/08 02:05:36;;;;;;;14.48;5.45;;;;;;;4.90;100.00;101575.56;6073409;28;20120;-70
2023/04/08 02:08:35;;;;;;;10.23;4.63;;;;;;;5.12;100.00;101582.13;6089596;28;20454;-69
2023/04/08 02:11:30;;;;;;;10.02;4.65;;;;;;;4.94;100.00;101575.31;6074471;28;20028;-69
2023/04/08 02:14:27;;;;;;;12.77;4.73;;;;;;;5.02;100.00;101573.09;6074976;28;20026;-70
2023/04/08 02:17:35;;;;;;;15.55;5.88;;;;;;;4.93;100.00;101583.25;6056077;28;20056;-70
2023/04/08 02:20:36;;;;;;;15.10;5.00;;;;;;;4.87;100.00;101578.34;6089779;28;20033;-70
2023/04/08 02:23:33;;;;;;;13.73;5.07;;;;;;;4.92;100.00;101581.59;6088737;28;20069;-70
2023/04/08 02:26:28;;;;;;;12.60;5.18;;;;;;;4.85;100.00;101569.72;6089256;28;20068;-69
2023/04/08 02:29:25;;;;;;;14.85;5.93;;;;;;;4.93;100.00;101591.16;6056584;28;20029;-70
2023/04/08 02:32:22;;;;;;;12.25;5.38;;;;;;;5.10;100.00;101593.66;6056248;28;20033;-70
2023/04/08 02:35:17;;;;;;;16.27;5.47;;;;;;;4.94;100.00;101574.47;6055659;28;20529;-70
2023/04/08 02:38:13;;;;;;;11.73;4.93;;;;;;;4.95;100.00;101592.75;6056029;28;20038;-70
2023/04/08 02:41:08;;;;;;;11.75;4.93;;;;;;;5.01;100.00;101595.03;6056373;28;20068;-70
2023/04/08 02:44:03;;;;;;;13.30;5.23;;;;;;;4.93;100.00;101596.41;6073202;28;20079;-71
2023/04/08 02:46:59;;;;;;;12.47;5.00;;;;;;;4.90;100.00;101599.19;6072809;28;20290;-70
2023/04/08 02:49:54;;;;;;;14.93;5.30;;;;;;;4.96;100.00;101588.34;6073247;28;20037;-70
2023/04/08 02:52:49;;;;;;;13.40;5.30;;;;;;;4.94;100.00;101595.47;6073434;28;20063;-71
2023/04/08 02:55:44;;;;;;;11.33;4.83;;;;;;;4.96;100.00;101594.44;6072895;28;20041;-71
2023/04/08 02:58:40;;;;;;;14.87;5.67;;;;;;;4.90;100.00;101607.94;6073614;28;20430;-71
2023/04/08 03:01:35;;;;;;;14.30;5.17;;;;;;;4.80;100.00;101593.63;6073370;28;20390;-71
2023/04/08 03:04:30;;;;;;;16.17;6.33;;;;;;;4.82;100.00;101605.75;6072496;28;20033;-70
2023/04/08 03:07:26;;;;;;;14.33;4.60;;;;;;;4.82;100.00;101618.91;6072557;28;20041;-70
2023/04/08 03:10:21;;;;;;;17.83;6.20;;;;;;;4.81;100.00;101590.91;6073028;28;20398;-70
2023/04/08 03:13:16;;;;;;;15.53;5.47;;;;;;;4.96;100.00;101596.22;6072482;28;20048;-71
2023/04/08 03:16:11;;;;;;;16.27;5.63;;;;;;;4.87;100.00;101602.84;6072546;28;20051;-70
2023/04/08 03:19:07;;;;;;;17.90;6.23;;;;;;;4.93;100.00;101615.66;6072774;28;20037;-70
2023/04/08 03:22:02;;;;;;;17.40;6.40;;;;;;;5.01;100.00;101628.34;6072775;28;20067;-72
2023/04/08 03:24:57;;;;;;;15.80;5.97;;;;;;;4.83;100.00;101606.59;6072217;28;20038;-71
2023/04/08 03:27:53;;;;;;;14.27;5.80;;;;;;;5.05;100.00;101628.09;6077758;28;20046;-71
2023/04/08 03:30:48;;;;;;;15.03;6.13;;;;;;;5.02;100.00;101614.28;6077552;28;20033;-71
2023/04/08 03:33:43;;;;;;;15.07;5.70;;;;;;;4.96;100.00;101612.84;6077034;28;20113;-71
2023/04/08 03:36:39;;;;;;;16.53;6.70;;;;;;;5.01;100.00;101608.16;6077501;28;20629;-69
2023/04/08 03:39:34;;;;;;;17.48;6.70;;;;;;;5.11;100.00;101603.25;6077604;28;20029;-71
2023/04/08 03:42:29;;;;;;;19.77;6.50;;;;;;;4.94;100.00;101601.59;6077467;28;20383;-70
2023/04/08 03:45:25;;;;;;;19.50;7.30;;;;;;;4.89;100.00;101608.03;6076453;28;20284;-69
2023/04/08 03:48:22;;;;;;;19.95;7.25;;;;;;;4.93;100.00;101626.16;6077225;28;20056;-71
2023/04/08 03:51:17;;;;;;;18.08;7.10;;;;;;;4.90;100.00;101609.72;6077169;28;20040;-69
2023/04/08 03:54:12;;;;;;;16.47;7.10;;;;;;;4.95;100.00;101615.56;6076519;28;20033;-71
2023/04/08 03:57:07;;;;;;;16.00;6.70;;;;;;;4.91;100.00;101606.16;6077005;28;20095;-70
2023/04/08 04:00:04;;;;;;;21.13;7.23;;;;;;;4.91;100.00;101617.53;6077989;28;20433;-70
2023/04/08 04:03:00;;;;;;;19.10;7.05;;;;;;;4.89;100.00;101616.78;6073373;28;20029;-69
2023/04/08 04:05:55;;;;;;;17.33;7.68;;;;;;;4.87;100.00;101616.00;6087119;28;20112;-70
2023/04/08 04:08:52;;;;;;;17.90;7.03;;;;;;;4.95;100.00;101607.66;6077914;28;20045;-71
2023/04/08 04:11:47;;;;;;;15.88;6.75;;;;;;;5.09;100.00;101628.75;6076473;28;20029;-70
2023/04/08 04:14:43;;;;;;;18.23;6.77;;;;;;;5.01;100.00;101612.56;6076205;28;20125;-69
2023/04/08 04:17:38;;;;;;;20.23;7.00;;;;;;;4.96;100.00;101612.00;6076607;28;20022;-70
2023/04/08 04:20:33;;;;;;;16.57;6.43;;;;;;;5.03;100.00;101626.50;6076439;28;20037;-69
2023/04/08 04:23:29;;;;;;;19.15;7.68;;;;;;;5.20;100.00;101636.88;6075959;28;20029;-69
2023/04/08 04:26:24;;;;;;;16.93;6.43;;;;;;;5.17;100.00;101642.28;6076314;28;20021;-72
2023/04/08 04:29:20;;;;;;;15.70;6.55;;;;;;;5.12;100.00;101631.19;6076577;28;20375;-69
2023/04/08 04:32:15;;;;;;;19.33;7.13;;;;;;;5.18;100.00;101646.63;6075587;28;20044;-70
2023/04/08 04:35:11;;;;;;;20.40;7.07;;;;;;;5.15;100.00;101654.69;6074644;28;20697;-68
2023/04/08 04:38:11;;;;;;;16.92;6.20;;;;;;;5.05;100.00;101649.13;6074203;28;20025;-70
2023/04/08 04:41:06;;;;;;;17.88;6.63;;;;;;;4.98;100.00;101642.50;6074705;28;20049;-69
2023/04/08 04:44:02;;;;;;;20.70;6.63;;;;;;;4.95;100.00;101654.97;6075068;28;20100;-69
2023/04/08 04:46:57;;;;;;;21.93;7.03;;;;;;;5.00;100.00;101655.59;6074036;28;20283;-69
2023/04/08 04:49:52;;;;;;;17.37;7.00;;;;;;;4.93;100.00;101657.69;6074859;28;20497;-71
2023/04/08 04:52:48;;;;;;;15.90;5.90;;;;;;;4.98;100.00;101654.78;6073595;28;20108;-70
2023/04/08 04:55:43;;;;;;;19.35;7.43;;;;;;;4.99;100.00;101664.38;6073436;28;20036;-70
2023/04/08 04:58:38;;;;;;;17.60;7.23;;;;;;;5.01;100.00;101678.28;6075564;28;20148;-68
2023/04/08 05:01:34;;;;;;;24.03;8.07;;;;;;;5.02;100.00;101672.09;6075818;28;20076;-70
2023/04/08 05:04:29;;;;;;;25.02;8.48;;;;;;;4.99;100.00;101675.75;6072767;28;20276;-70
2023/04/08 05:07:24;;;;;;;31.83;9.73;;;;;;;4.98;100.00;101678.44;6074219;28;20029;-70
2023/04/08 05:10:20;;;;;;;20.08;7.47;;;;;;;5.06;100.00;101678.88;6073939;28;20489;-70
2023/04/08 05:13:16;;;;;;;15.73;6.53;;;;;;;5.07;100.00;101667.44;6074203;28;20044;-70
2023/04/08 05:16:11;;;;;;;21.00;7.13;;;;;;;5.07;100.00;101676.16;6075013;28;20282;-70
2023/04/08 05:19:06;;;;;;;14.63;5.72;;;;;;;5.21;100.00;101670.97;6075099;28;20033;-70
2023/04/08 05:22:02;;;;;;;13.47;6.27;;;;;;;5.02;100.00;101666.84;6075328;28;20045;-69
2023/04/08 05:24:57;;;;;;;16.43;7.60;;;;;;;5.08;100.00;101680.47;6074107;28;20529;-70
2023/04/08 05:27:52;;;;;;;20.43;8.17;;;;;;;5.04;100.00;101686.84;6075259;28;20040;-70
2023/04/08 05:30:51;;;;;;;18.80;7.93;;;;;;;5.03;100.00;101698.28;6075368;28;20268;-70
2023/04/08 05:33:47;;;;;;;19.95;8.52;;;;;;;5.00;100.00;101700.25;6074608;28;20113;-69
2023/04/08 05:36:42;;;;;;;20.85;8.30;;;;;;;5.04;100.00;101701.75;6075475;28;20450;-69
2023/04/08 05:39:38;;;;;;;20.38;7.32;;;;;;;5.11;100.00;101711.84;6074990;28;20041;-70
2023/04/08 05:42:33;;;;;;;16.67;6.88;;;;;;;5.10;100.00;101686.50;6075287;28;20403;-70
2023/04/08 05:45:28;;;;;;;18.40;7.37;;;;;;;5.04;100.00;101699.13;6074485;28;20036;-71
2023/04/08 05:48:24;;;;;;;21.47;7.40;;;;;;;5.00;100.00;101692.38;6074889;28;20037;-71
2023/04/08 05:51:19;;;;;;;18.67;7.50;;;;;;;5.18;100.00;101709.72;6074158;28;20037;-70
2023/04/08 05:54:15;;;;;;;16.17;6.30;;;;;;;5.19;100.00;101700.91;6071696;28;20264;-69
2023/04/08 05:57:10;;;;;;;17.67;6.45;;;;;;;5.28;100.00;101703.84;6071820;28;20029;-71
2023/04/08 06:00:08;;;;;;;18.55;7.80;;;;;;;5.22;100.00;101700.72;6072489;28;20108;-70
2023/04/08 06:03:03;;;;;;;19.65;6.70;;;;;;;5.26;100.00;101710.13;6073512;28;20080;-70
2023/04/08 06:05:59;;;;;;;18.03;7.27;;;;;;;5.15;100.00;101699.38;6072740;28;20033;-71
2023/04/08 06:08:54;;;;;;;17.67;7.32;;;;;;;5.24;100.00;101720.75;6073992;28;20037;-69
2023/04/08 06:11:50;;;;;;;17.33;6.68;;;;;;;5.11;100.00;101713.66;6074226;28;20033;-69
2023/04/08 06:14:45;;;;;;;18.60;7.10;;;;;;;5.32;100.00;101715.06;6073274;28;20032;-71
2023/04/08 06:17:41;;;;;;;21.13;7.33;;;;;;;5.32;100.00;101717.69;6074008;28;20048;-71
2023/04/08 06:20:36;;;;;;;20.15;8.10;;;;;;;5.32;100.00;101734.31;6073927;28;20509;-70
2023/04/08 06:23:31;;;;;;;18.50;6.70;;;;;;;5.41;100.00;101727.66;6074654;28;20045;-70
2023/04/08 06:26:27;;;;;;;16.03;6.23;;;;;;;5.36;100.00;101737.59;6095281;28;20037;-69
2023/04/08 06:29:22;;;;;;;18.73;7.60;;;;;;;5.23;100.00;101731.34;6076081;28;20037;-69
2023/04/08 06:32:18;;;;;;;20.85;7.28;;;;;;;5.25;100.00;101748.72;6073898;28;20029;-70
2023/04/08 06:35:13;;;;;;;22.40;7.70;;;;;;;5.14;100.00;101739.72;6072852;28;20063;-70
2023/04/08 06:38:08;;;;;;;20.80;7.47;;;;;;;5.32;100.00;101734.31;6073423;28;20052;-70
2023/04/08 06:41:07;;;;;;;23.10;7.97;;;;;;;5.15;100.00;101733.56;6073413;28;20272;-70
2023/04/08 06:44:02;;;;;;;19.27;7.43;;;;;;;5.20;100.00;101749.91;6072860;28;20053;-71
2023/04/08 06:46:57;;;;;;;19.57;6.93;;;;;;;5.18;100.00;101736.88;6073874;28;20026;-69
2023/04/08 06:49:53;;;;;;;18.57;6.17;;;;;;;5.33;100.00;101743.03;6073766;28;20083;-71
2023/04/08 06:52:48;;;;;;;18.90;6.73;;;;;;;5.58;100.00;101745.09;6078665;28;20041;-71
2023/04/08 06:55:43;;;;;;;18.27;7.93;;;;;;;5.55;100.00;101761.06;6073041;28;20314;-71
2023/04/08 06:58:39;;;;;;;21.67;7.23;;;;;;;5.42;100.00;101750.41;6073586;28;20049;-70
2023/04/08 07:01:34;;;;;;;17.13;6.63;;;;;;;5.46;100.00;101759.81;6073070;28;20041;-71
2023/04/08 07:04:29;;;;;;;31.03;9.27;;;;;;;5.31;100.00;101769.41;6073004;28;20107;-70
2023/04/08 07:07:25;;;;;;;28.57;8.10;;;;;;;5.36;100.00;101779.66;6072777;28;20034;-71
2023/04/08 07:10:20;;;;;;;21.70;7.73;;;;;;;5.34;100.00;101750.00;6073335;28;20116;-69
2023/04/08 07:13:16;;;;;;;19.03;7.33;;;;;;;5.36;100.00;101763.88;6072454;28;20029;-71
2023/04/08 07:16:11;;;;;;;23.90;8.32;;;;;;;5.32;100.00;101780.78;6072459;28;20314;-71
2023/04/08 07:19:07;;;;;;;23.17;7.23;;;;;;;5.36;100.00;101777.03;6072079;28;20029;-70
2023/04/08 07:22:02;;;;;;;18.92;7.95;;;;;;;5.39;100.00;101782.13;6071313;28;20037;-69
2023/04/08 07:24:57;;;;;;;25.60;8.13;;;;;;;5.47;100.00;101764.13;6071184;28;20037;-70
2023/04/08 07:27:52;;;;;;;20.00;7.10;;;;;;;5.69;100.00;101775.13;6072566;28;20025;-71
2023/04/08 07:30:48;;;;;;;18.67;7.07;;;;;;;5.64;100.00;101764.00;6076863;28;20420;-71
2023/04/08 07:33:44;;;;;;;19.53;7.80;;;;;;;5.73;100.00;101778.44;6071482;28;20033;-71
2023/04/08 07:36:39;;;;;;;19.73;7.20;;;;;;;5.84;100.00;101766.31;6072414;28;20034;-70
2023/04/08 07:39:35;;;;;;;19.00;7.10;;;;;;;5.67;100.00;101769.09;6072669;28;20064;-71
2023/04/08 07:42:30;;;;;;;20.13;7.13;;;;;;;5.70;100.00;101765.44;6072328;28;20095;-71
2023/04/08 07:45:26;;;;;;;21.35;8.13;;;;;;;5.83;100.00;101772.53;6072298;28;20390;-70
2023/04/08 07:48:21;;;;;;;20.07;7.67;;;;;;;5.89;100.00;101772.22;6072424;28;20041;-71
2023/04/08 07:51:16;;;;;;;24.23;6.93;;;;;;;5.82;100.00;101783.13;6071875;28;20838;-71
2023/04/08 07:54:16;;;;;;;20.75;7.43;;;;;;;5.76;100.00;101781.72;6072202;28;20257;-71
2023/04/08 07:57:11;;;;;;;23.08;8.63;;;;;;;6.06;100.00;101799.34;6072596;28;20036;-70
2023/04/08 08:00:07;;;;;;;18.50;7.30;;;;;;;6.12;100.00;101809.47;6072667;28;20379;-72
2023/04/08 08:03:02;;;;;;;18.65;6.57;;;;;;;5.92;100.00;101795.69;6072149;28;20025;-71
2023/04/08 08:05:57;;;;;;;20.53;7.63;;;;;;;6.08;100.00;101803.56;6070006;28;20029;-71
2023/04/08 08:08:53;;;;;;;20.30;6.73;;;;;;;6.34;100.00;101802.00;6069650;28;20044;-71
2023/04/08 08:11:48;;;;;;;17.47;7.13;;;;;;;6.32;100.00;101801.25;6072535;28;20061;-72
2023/04/08 08:14:43;;;;;;;19.33;6.67;;;;;;;6.29;100.00;101798.81;6060825;28;20033;-71
2023/04/08 08:17:39;;;;;;;18.43;7.43;;;;;;;6.39;100.00;101803.41;6075261;28;20539;-71
2023/04/08 08:20:34;;;;;;;16.17;6.78;;;;;;;6.46;100.00;101803.91;6076113;28;20045;-71
2023/04/08 08:23:30;;;;;;;17.50;6.63;;;;;;;6.37;100.00;101796.56;6076110;28;20033;-71
2023/04/08 08:26:25;;;;;;;18.90;6.60;;;;;;;6.66;100.00;101798.25;6076392;28;20087;-72
2023/04/08 08:29:20;;;;;;;16.93;7.27;;;;;;;6.70;100.00;101801.56;6076923;28;20103;-71
2023/04/08 08:32:16;;;;;;;18.13;6.73;;;;;;;6.77;100.00;101826.59;6076457;28;20360;-71
2023/04/08 08:35:11;;;;;;;19.33;6.47;;;;;;;6.88;100.00;101827.63;6076054;28;20047;-70
2023/04/08 08:38:06;;;;;;;15.97;7.23;;;;;;;6.49;100.00;101822.16;6076386;28;20025;-69
2023/04/08 08:41:03;;;;;;;24.77;7.67;;;;;;;6.58;100.00;101824.22;6076165;28;20556;-70
2023/04/08 08:43:58;;;;;;;21.10;7.10;;;;;;;6.45;100.00;101820.66;6075671;28;20029;-70
2023/04/08 08:46:54;;;;;;;19.92;7.75;;;;;;;6.32;100.00;101833.72;6066978;28;20060;-70
2023/04/08 08:49:49;;;;;;;18.17;6.90;;;;;;;6.47;100.00;101853.88;6091108;28;20505;-69
2023/04/08 08:52:51;;;;;;;17.10;7.15;;;;;;;6.50;100.00;101827.34;6077538;28;20029;-69
2023/04/08 08:55:46;;;;;;;17.60;7.18;;;;;;;6.34;100.00;101837.09;6075000;28;20032;-70
2023/04/08 08:58:42;;;;;;;19.87;7.20;;;;;;;6.46;100.00;101857.47;6075971;28;20029;-71
2023/04/08 09:01:40;;;;;;;19.08;7.18;;;;;;;6.44;100.00;101853.22;6075351;28;20345;-70
2023/04/08 09:04:35;;;;;;;19.05;7.28;;;;;;;6.33;100.00;101861.72;6074088;28;20040;-70
2023/04/08 09:07:34;;;;;;;24.70;7.80;;;;;;;6.22;100.00;101864.19;6075393;28;20029;-69
2023/04/08 09:10:29;;;;;;;22.70;7.55;;;;;;;6.23;100.00;101859.72;6075630;28;20265;-71
2023/04/08 09:13:34;;;;;;;19.70;8.10;;;;;;;6.15;100.00;101849.66;6075109;28;20485;-70
2023/04/08 09:16:31;;;;;;;19.13;7.22;;;;;;;6.13;100.00;101861.22;6075506;28;20037;-70
2023/04/08 09:19:26;;;;;;;24.35;7.95;;;;;;;6.17;100.00;101865.38;6075721;28;20029;-70
2023/04/08 09:22:21;;;;;;;21.67;7.90;;;;;;;6.25;100.00;101865.78;6075499;28;20064;-70
2023/04/08 09:25:24;;;;;;;21.63;8.13;;;;;;;6.35;100.00;101864.28;6074256;28;20741;-71
2023/04/08 09:28:20;;;;;;;22.90;7.10;;;;;;;6.39;100.00;101860.53;6075441;28;20342;-70
2023/04/08 09:31:21;;;;;;;21.50;7.43;;;;;;;6.27;100.00;101869.16;6075316;28;20037;-69
2023/04/08 09:34:20;;;;;;;20.15;7.45;;;;;;;6.40;100.00;101868.34;6074840;28;20406;-70
2023/04/08 09:37:15;;;;;;;20.63;8.02;;;;;;;6.47;100.00;101863.53;6075094;28;20532;-70
2023/04/08 09:40:12;;;;;;;20.20;8.43;;;;;;;6.47;100.00;101860.91;6075310;28;20128;-70
2023/04/08 09:43:08;;;;;;;26.30;9.63;;;;;;;6.55;100.00;101888.50;6075075;28;20025;-70
2023/04/08 09:46:04;;;;;;;29.77;9.85;;;;;;;6.47;100.00;101889.91;6074645;28;20037;-70
2023/04/08 09:49:23;;;;;;;21.10;8.68;;;;;;;6.39;100.00;101902.66;6075401;28;20033;-70
2023/04/08 09:52:31;;;;;;;20.92;7.57;;;;;;;6.47;100.00;101889.91;6079107;28;20060;-70
2023/04/08 09:55:27;;;;;;;24.25;8.40;;;;;;;6.31;100.00;101886.47;6089423;28;20029;-70
2023/04/08 09:58:33;;;;;;;26.92;8.10;;;;;;;6.38;100.00;101899.22;6090176;28;20108;-72
2023/04/08 10:01:38;;;;;;;25.13;8.38;;;;;;;6.23;100.00;101900.09;6074718;28;20038;-70
2023/04/08 10:04:37;;;;;;;23.65;7.93;;;;;;;6.25;100.00;101900.84;6073789;28;20037;-70
2023/04/08 10:07:34;;;;;;;22.52;9.07;;;;;;;6.25;100.00;101911.38;6074544;28;20029;-70
2023/04/08 10:10:30;;;;;;;23.77;8.10;;;;;;;6.37;100.00;101900.13;6074409;28;20029;-71
2023/04/08 10:13:27;;;;;;;22.17;7.93;;;;;;;6.29;100.00;101902.38;6056157;28;20505;-71
2023/04/08 10:16:26;;;;;;;20.48;8.20;;;;;;;6.28;100.00;101902.44;6074376;28;20110;-70
2023/04/08 10:19:40;;;;;;;26.48;9.05;;;;;;;6.10;100.00;101891.22;6074529;28;20135;-70
2023/04/08 10:22:46;;;;;;;26.92;10.27;;;;;;;6.21;100.00;101903.75;6074273;28;20193;-70
2023/04/08 10:25:43;;;;;;;27.70;10.05;;;;;;;6.12;100.00;101899.00;6073631;28;20068;-70
2023/04/08 10:28:39;;;;;;;25.10;8.02;;;;;;;6.25;100.00;101900.03;6073991;28;20029;-69
2023/04/08 10:31:39;;;;;;;25.15;9.23;;;;;;;6.34;100.00;101894.19;6077231;28;20045;-70
2023/04/08 10:34:50;;;;;;;29.35;9.38;;;;;;;6.29;100.00;101891.00;6072626;28;20037;-69
2023/04/08 10:37:46;;;;;;;24.25;10.27;;;;;;;6.26;100.00;101892.00;6073764;28;20033;-70
2023/04/08 10:40:42;;;;;;;25.73;8.63;;;;;;;6.33;100.00;101901.25;6073747;28;20038;-71
2023/04/08 10:43:37;;;;;;;23.27;8.52;;;;;;;6.50;100.00;101906.38;6073095;28;20029;-71
2023/04/08 10:46:38;;;;;;;27.23;9.33;;;;;;;6.18;100.00;101899.50;6073791;28;20048;-71
2023/04/08 10:49:34;;;;;;;25.50;8.77;;;;;;;6.25;100.00;101900.03;6073848;28;20052;-70
2023/04/08 10:52:30;;;;;;;29.00;8.75;;;;;;;6.34;100.00;101905.59;6079939;28;20045;-70
2023/04/08 10:55:26;;;;;;;24.25;8.30;;;;;;;6.32;100.00;101910.09;6073089;28;20044;-71
2023/04/08 10:58:22;;;;;;;25.00;7.97;;;;;;;6.29;100.00;101912.06;6073432;28;20033;-70
2023/04/08 11:01:18;;;;;;;26.05;9.15;;;;;;;6.48;100.00;101912.69;6076445;28;20041;-69
2023/04/08 11:04:15;;;;;;;24.30;7.97;;;;;;;6.52;100.00;101908.94;6092130;28;20037;-69
2023/04/08 11:07:11;;;;;;;24.15;8.63;;;;;;;6.62;100.00;101904.81;6073475;28;20072;-70
2023/04/08 11:10:07;;;;;;;29.33;9.02;;;;;;;6.52;100.00;101893.94;6073466;28;20037;-71
2023/04/08 11:13:05;;;;;;;27.40;9.52;;;;;;;6.45;100.00;101918.13;6073072;28;20029;-70
2023/04/08 11:16:01;;;;;;;25.55;9.05;;;;;;;6.39;100.00;101913.22;6073246;28;20083;-70
2023/04/08 11:18:57;;;;;;;30.20;10.05;;;;;;;6.30;100.00;101919.88;6073212;28;20371;-69
2023/04/08 11:21:52;;;;;;;27.67;8.98;;;;;;;6.33;100.00;101919.69;6073569;28;20033;-70
2023/04/08 11:24:48;;;;;;;23.90;8.57;;;;;;;6.63;100.00;101930.25;6055059;28;20037;-72
2023/04/08 11:27:43;;;;;;;26.77;8.80;;;;;;;6.46;100.00;101933.00;6055320;28;20032;-71
2023/04/08 11:30:39;;;;;;;28.92;9.30;;;;;;;6.43;100.00;101923.50;6073431;28;20131;-71
2023/04/08 11:33:35;;;;;;;31.33;10.00;;;;;;;6.38;100.00;101922.94;6087769;28;20041;-71
2023/04/08 11:36:30;;;;;;;32.65;12.32;;;;;;;6.43;100.00;101928.78;6073310;28;20037;-71
2023/04/08 11:39:26;;;;;;;35.13;10.53;;;;;;;6.44;100.00;101921.72;6073178;28;20077;-71
2023/04/08 11:42:28;;;;;;;25.17;9.63;;;;;;;6.56;100.00;101920.97;6072863;28;20036;-71
2023/04/08 11:45:23;;;;;;;23.77;8.90;;;;;;;6.60;100.00;101925.16;6072725;28;20415;-71
2023/04/08 11:48:18;;;;;;;23.42;9.13;;;;;;;6.60;100.00;101938.31;6076941;28;20041;-71
2023/04/08 11:51:14;;;;;;;21.73;8.60;;;;;;;6.70;100.00;101936.84;6077685;28;20040;-71
2023/04/08 11:54:27;;;;;;;25.65;8.88;;;;;;;6.78;100.00;101923.19;6081359;28;20264;-71
2023/04/08 11:57:29;;;;;;;25.15;8.73;;;;;;;6.90;100.00;101919.81;6077749;28;20037;-72
2023/04/08 12:00:26;;;;;;;20.08;7.55;;;;;;;6.94;100.00;101932.72;6077633;28;20117;-70
2023/04/08 12:03:22;;;;;;;24.75;9.10;;;;;;;6.68;100.00;101925.53;6076864;28;20033;-70
2023/04/08 12:06:17;;;;;;;21.33;8.63;;;;;;;6.70;100.00;101934.19;6077209;28;20037;-70
2023/04/08 12:09:13;;;;;;;23.47;8.40;;;;;;;6.81;100.00;101923.00;6077125;28;20100;-70
2023/04/08 12:12:08;;;;;;;27.35;8.60;;;;;;;7.15;100.00;101925.28;6077427;28;20359;-70
2023/04/08 12:15:04;;;;;;;20.50;7.73;;;;;;;7.13;100.00;101919.25;6076452;28;20068;-71
2023/04/08 12:17:59;;;;;;;24.70;7.75;;;;;;;7.21;100.00;101919.63;6077220;28;20025;-71
2023/04/08 12:20:54;;;;;;;25.47;9.20;;;;;;;6.97;100.00;101927.25;6077142;28;20025;-71
2023/04/08 12:23:50;;;;;;;20.70;8.15;;;;;;;7.31;100.00;101933.13;6076034;28;20039;-70
2023/04/08 12:26:46;;;;;;;21.30;7.82;;;;;;;7.10;100.00;101922.94;6076975;28;20037;-70
2023/04/08 12:29:42;;;;;;;25.73;8.97;;;;;;;7.16;100.00;101917.28;6076637;28;20044;-71
2023/04/08 12:32:37;;;;;;;23.80;8.82;;;;;;;7.41;100.00;101937.72;6077011;28;20033;-71
2023/04/08 12:35:32;;;;;;;21.40;7.57;;;;;;;7.45;100.00;101922.53;6076261;28;20045;-71
2023/04/08 12:38:28;;;;;;;26.73;7.73;;;;;;;7.73;100.00;101911.91;6076489;28;20029;-69
2023/04/08 12:41:23;;;;;;;24.60;8.57;;;;;;;7.80;99.61;101913.22;6076823;28;20032;-71
2023/04/08 12:44:18;;;;;;;23.93;8.07;;;;;;;7.83;99.06;101925.41;6075727;28;20546;-69
2023/04/08 12:47:14;;;;;;;22.83;7.27;;;;;;;8.09;98.97;101922.75;6076480;28;20288;-70
2023/04/08 12:50:09;;;;;;;20.70;9.10;;;;;;;8.10;97.33;101911.22;6076459;28;20476;-70
2023/04/08 12:53:04;;;;;;;22.33;7.53;;;;;;;8.37;95.05;101916.50;6082332;28;20037;-70
2023/04/08 12:56:00;;;;;;;20.20;6.70;;;;;;;8.21;94.78;101921.09;6075687;28;20291;-70
2023/04/08 12:58:56;;;;;;;15.85;7.35;;;;;;;8.55;93.77;101917.09;6075181;28;20255;-70
2023/04/08 13:01:51;;;;;;;19.77;7.25;;;;;;;8.64;92.85;101924.41;6076452;28;20030;-71
2023/04/08 13:04:48;;;;;;;17.93;7.30;;;;;;;8.45;92.80;101923.94;6075522;28;20050;-71
2023/04/08 13:07:44;;;;;;;20.27;6.93;;;;;;;8.63;91.90;101934.13;6075733;28;20025;-70
2023/04/08 13:10:41;;;;;;;16.60;7.07;;;;;;;8.56;91.92;101930.19;6076017;28;20050;-71
2023/04/08 13:13:36;;;;;;;20.23;7.20;;;;;;;8.40;92.17;101929.50;6075023;28;20037;-70
2023/04/08 13:16:31;;;;;;;18.77;7.00;;;;;;;8.51;92.47;101920.88;6075990;28;20032;-69
2023/04/08 13:19:27;;;;;;;22.50;8.23;;;;;;;8.02;93.39;101917.94;6075813;28;20025;-71
2023/04/08 13:22:22;;;;;;;27.97;9.50;;;;;;;7.91;95.17;101923.94;6090746;28;20101;-69
2023/04/08 13:25:17;;;;;;;22.00;7.30;;;;;;;7.68;96.14;101927.22;6082153;28;20037;-69
2023/04/08 13:28:13;;;;;;;19.63;6.57;;;;;;;8.13;96.38;101936.59;6075459;28;20042;-70
2023/04/08 13:31:08;;;;;;;20.88;7.65;;;;;;;8.14;95.09;101928.56;6075474;28;20296;-70